createdAt,value
2018-12-07T00:03:43.318Z,100334
2018-12-07T00:09:05.965Z,100334
2018-12-07T00:14:28.802Z,100325
2018-12-07T00:19:51.736Z,100316
2018-12-07T00:25:14.675Z,100312
2018-12-07T00:30:38.493Z,100310
2018-12-07T00:36:01.147Z,100304
2018-12-07T00:41:23.803Z,100298
2018-12-07T00:46:47.396Z,100292
2018-12-07T00:52:10.417Z,100281
2018-12-07T00:57:33.302Z,100281
2018-12-07T01:02:55.938Z,100271
2018-12-07T01:08:19.433Z,100271
2018-12-07T01:13:42.100Z,100271
2018-12-07T01:19:04.727Z,100260
2018-12-07T01:24:27.402Z,100264
2018-12-07T01:29:51.034Z,100255
2018-12-07T01:35:13.776Z,100251
2018-12-07T01:40:36.465Z,100248
2018-12-07T01:45:59.155Z,100247
2018-12-07T01:51:21.805Z,100237
2018-12-07T01:56:44.796Z,100237
2018-12-07T02:02:07.702Z,100240
2018-12-07T02:07:30.495Z,100232
2018-12-07T02:12:53.907Z,100208
2018-12-07T02:18:16.587Z,100215
2018-12-07T02:23:39.310Z,100205
2018-12-07T02:29:02.046Z,100194
2018-12-07T02:34:24.963Z,100189
2018-12-07T02:39:47.951Z,100188
2018-12-07T02:45:10.825Z,100182
2018-12-07T02:50:33.570Z,100183
2018-12-07T02:55:57.181Z,100168
2018-12-07T03:01:20.496Z,100167
2018-12-07T03:06:43.550Z,100162
2018-12-07T03:12:06.369Z,100151
2018-12-07T03:17:29.515Z,100149
2018-12-07T03:22:52.227Z,100142
2018-12-07T03:28:14.866Z,100129
2018-12-07T03:33:37.668Z,100118
2018-12-07T03:39:00.477Z,100108
2018-12-07T03:44:23.332Z,100106
2018-12-07T03:49:45.930Z,100104
2018-12-07T03:55:08.725Z,100100
2018-12-07T04:00:31.760Z,100099
2018-12-07T04:05:54.444Z,100095
2018-12-07T04:11:17.289Z,100088
2018-12-07T04:16:40.019Z,100072
2018-12-07T04:22:03.325Z,100070
2018-12-07T04:27:26.156Z,100058
2018-12-07T04:32:49.091Z,100064
2018-12-07T04:38:11.826Z,100055
2018-12-07T04:43:34.551Z,100049
2018-12-07T04:48:57.595Z,100047
2018-12-07T04:54:20.276Z,100040
2018-12-07T04:59:43.010Z,100039
2018-12-07T05:05:05.706Z,100032
2018-12-07T05:10:29.915Z,100027
2018-12-07T05:15:52.734Z,100019
2018-12-07T05:21:15.756Z,100021
2018-12-07T05:26:38.404Z,100007
2018-12-07T05:32:01.227Z,100004
2018-12-07T05:37:23.904Z,99995
2018-12-07T05:42:47.067Z,99994
2018-12-07T05:48:09.864Z,99980
2018-12-07T05:53:32.759Z,99972
2018-12-07T05:59:04.508Z,99958
2018-12-07T06:04:38.048Z,99956
2018-12-07T06:10:00.944Z,99961
2018-12-07T06:15:23.824Z,99950
2018-12-07T06:20:46.488Z,99942
2018-12-07T06:26:09.161Z,99930
2018-12-07T06:31:31.965Z,99923
2018-12-07T06:36:54.751Z,99920
2018-12-07T06:42:17.562Z,99918
2018-12-07T06:47:40.536Z,99912
2018-12-07T06:53:14.159Z,99908
2018-12-07T06:58:37.145Z,99897
2018-12-07T07:04:09.829Z,99889
2018-12-07T07:10:06.807Z,99885
2018-12-07T07:15:40.069Z,99878
2018-12-07T07:21:13.479Z,99867
2018-12-07T07:26:46.004Z,99855
2018-12-07T07:32:19.423Z,99843
2018-12-07T07:37:42.856Z,99840
2018-12-07T07:43:15.223Z,99843
2018-12-07T07:48:37.886Z,99839
2018-12-07T07:54:00.591Z,99834
2018-12-07T07:59:23.267Z,99824
2018-12-07T08:04:46.021Z,99813
2018-12-07T08:10:08.827Z,99802
2018-12-07T08:15:42.857Z,99798
2018-12-07T08:21:05.778Z,99793
2018-12-07T08:26:28.606Z,99785
2018-12-07T08:32:01.103Z,99781
2018-12-07T08:37:24.143Z,99779
2018-12-07T08:42:57.754Z,99778
2018-12-07T08:48:31.637Z,99765
2018-12-07T08:54:03.962Z,99750
2018-12-07T08:59:26.770Z,99742
2018-12-07T09:05:01.148Z,99733
2018-12-07T09:10:26.321Z,99736
2018-12-07T09:15:58.172Z,99729
2018-12-07T09:21:21.083Z,99713
2018-12-07T09:26:55.238Z,99715
2018-12-07T09:32:53.817Z,99703
2018-12-07T09:38:26.144Z,99695
2018-12-07T09:43:58.808Z,99690
2018-12-07T09:49:21.656Z,99681
2018-12-07T09:54:44.936Z,99682
2018-12-07T10:00:19.273Z,99679
2018-12-07T10:05:51.646Z,99662
2018-12-07T10:11:24.817Z,99643
2018-12-07T10:16:48.530Z,99636
2018-12-07T10:22:22.663Z,99626
2018-12-07T10:28:54.254Z,99599
2018-12-07T10:34:17.870Z,99592
2018-12-07T10:40:18.697Z,99577
2018-12-07T10:46:45.143Z,99571
2018-12-07T10:52:45.531Z,99554
2018-12-07T10:58:18.773Z,99547
2018-12-07T11:03:51.049Z,99531
2018-12-07T11:09:23.683Z,99525
2018-12-07T11:14:55.625Z,99503
2018-12-07T11:20:28.979Z,99489
2018-12-07T11:26:02.402Z,99474
2018-12-07T11:31:34.367Z,99469
2018-12-07T11:37:07.353Z,99454
2018-12-07T11:42:30.330Z,99424
2018-12-07T11:47:53.202Z,99426
2018-12-07T11:53:15.926Z,99412
2018-12-07T11:58:38.748Z,99403
2018-12-07T12:04:01.578Z,99388
2018-12-07T12:09:24.499Z,99374
2018-12-07T12:14:47.453Z,99367
2018-12-07T12:20:19.959Z,99351
2018-12-07T12:25:42.700Z,99326
2018-12-07T12:31:05.596Z,99317
2018-12-07T12:36:29.336Z,99288
2018-12-07T12:41:52.556Z,99275
2018-12-07T12:47:15.367Z,99267
2018-12-07T12:52:38.198Z,99255
2018-12-07T12:58:00.834Z,99233
2018-12-07T13:03:23.486Z,99209
2018-12-07T13:08:46.258Z,99199
2018-12-07T13:14:09.731Z,99189
2018-12-07T13:19:32.434Z,99175
2018-12-07T13:24:55.116Z,99156
2018-12-07T13:30:18.079Z,99135
2018-12-07T13:35:40.731Z,99116
2018-12-07T13:41:03.877Z,99106
2018-12-07T13:46:27.774Z,99096
2018-12-07T13:51:50.491Z,99083
2018-12-07T13:57:13.549Z,99055
2018-12-07T14:02:36.247Z,99058
2018-12-07T14:07:59.008Z,99040
2018-12-07T14:13:22.473Z,99025
2018-12-07T14:18:45.230Z,99028
2018-12-07T14:24:07.922Z,99016
2018-12-07T14:29:30.539Z,99013
2018-12-07T14:34:53.414Z,99011
2018-12-07T14:40:16.045Z,99001
2018-12-07T14:45:39.009Z,98990
2018-12-07T14:51:01.706Z,98980
2018-12-07T14:56:26.889Z,98966
2018-12-07T15:01:49.709Z,98962
2018-12-07T15:07:12.441Z,98945
2018-12-07T15:12:35.442Z,98958
2018-12-07T15:17:57.926Z,98940
2018-12-07T15:23:21.019Z,98926
2018-12-07T15:28:43.887Z,98911
2018-12-07T15:34:16.865Z,98897
2018-12-07T15:39:48.703Z,98884
2018-12-07T15:45:21.369Z,98872
2018-12-07T15:50:44.076Z,98851
2018-12-07T15:56:06.789Z,98847
2018-12-07T16:01:29.602Z,98833
2018-12-07T16:06:52.334Z,98820
2018-12-07T16:12:15.173Z,98820
2018-12-07T16:17:37.818Z,98803
2018-12-07T16:23:00.799Z,98810
2018-12-07T16:28:23.731Z,98793
2018-12-07T16:33:55.508Z,98775
2018-12-07T16:39:28.095Z,98763
2018-12-07T16:45:01.327Z,98755
2018-12-07T16:50:33.263Z,98750
2018-12-07T16:56:05.916Z,98736
2018-12-07T17:01:39.175Z,98743
2018-12-07T17:07:13.558Z,98727
2018-12-07T17:12:45.274Z,98707
2018-12-07T17:18:18.951Z,98694
2018-12-07T17:23:51.569Z,98683
2018-12-07T17:29:14.564Z,98676
2018-12-07T17:34:37.468Z,98662
2018-12-07T17:40:00.612Z,98664
2018-12-07T17:45:33.049Z,98657
2018-12-07T17:50:56.689Z,98659
2018-12-07T17:56:19.294Z,98650
2018-12-07T18:02:18.876Z,98647
2018-12-07T18:07:51.615Z,98646
2018-12-07T18:13:28.204Z,98648
2018-12-07T18:19:28.803Z,98655
2018-12-07T18:25:03.938Z,98654
2018-12-07T18:30:35.795Z,98749
2018-12-07T18:35:58.752Z,98771
2018-12-07T18:41:21.638Z,98776
2018-12-07T18:46:44.966Z,98779
2018-12-07T18:52:07.772Z,98783
2018-12-07T18:57:30.385Z,98807
2018-12-07T19:03:03.256Z,98822
2018-12-07T19:08:36.315Z,98823
2018-12-07T19:14:10.301Z,98829
2018-12-07T19:19:33.186Z,98857
2018-12-07T19:24:55.327Z,98889
2018-12-07T19:30:18.476Z,98894
2018-12-07T19:35:41.594Z,98896
2018-12-07T19:41:04.584Z,98911
2018-12-07T19:46:27.541Z,98940
2018-12-07T19:51:51.428Z,98956
2018-12-07T19:57:23.163Z,98976
2018-12-07T20:02:46.107Z,99003
2018-12-07T20:08:09.074Z,99014
2018-12-07T20:13:42.311Z,99015
2018-12-07T20:19:06.523Z,99023
2018-12-07T20:24:29.207Z,99024
2018-12-07T20:30:02.218Z,99040
2018-12-07T20:35:53.064Z,99052
2018-12-07T20:41:17.355Z,99068
2018-12-07T20:46:40.579Z,99075
2018-12-07T20:52:03.373Z,99094
2018-12-07T20:57:26.335Z,99107
2018-12-07T21:02:48.949Z,99120
2018-12-07T21:08:12.133Z,99129
2018-12-07T21:13:35.200Z,99132
2018-12-07T21:18:58.139Z,99153
2018-12-07T21:24:21.154Z,99163
2018-12-07T21:29:44.224Z,99173
2018-12-07T21:35:06.816Z,99167
2018-12-07T21:40:30.475Z,99171
2018-12-07T21:45:53.086Z,99195
2018-12-07T21:51:16.883Z,99209
2018-12-07T21:56:39.395Z,99222
2018-12-07T22:02:02.146Z,99223
2018-12-07T22:07:24.867Z,99233
2018-12-07T22:12:47.597Z,99240
2018-12-07T22:18:11.064Z,99248
2018-12-07T22:23:33.624Z,99254
2018-12-07T22:28:56.285Z,99262
2018-12-07T22:34:19.063Z,99270
2018-12-07T22:39:41.882Z,99278
2018-12-07T22:45:04.854Z,99282
2018-12-07T22:50:29.235Z,99291
2018-12-07T22:55:51.985Z,99291
2018-12-07T23:01:15.308Z,99292
2018-12-07T23:06:38.026Z,99300
2018-12-07T23:12:00.882Z,99301
2018-12-07T23:17:23.609Z,99309
2018-12-07T23:22:49.001Z,99312
2018-12-07T23:28:09.175Z,99322
2018-12-07T23:33:31.824Z,99329
2018-12-07T23:38:54.580Z,99336
2018-12-07T23:44:17.244Z,99321
2018-12-07T23:49:40.034Z,99312
2018-12-07T23:55:02.746Z,99321
